Time;durP1;ratioP1;P1;durP2;ratioP2;P2;SDS_P1;SDS_P2;PMS_P1;PMS_P2;Temp;Humidity;BMP_temperature;BMP_pressure;BME280_temperature;BME280_humidity;BME280_pressure;Samples;Min_cycle;Max_cycle;Signal;HPM_P1;HPM_P2
2022/12/30 00:04:25;;;;;;;;;7.00;3.67;;;;;8.65;100.00;100601.91;6291855;22;45358;-83
2022/12/30 00:06:51;;;;;;;;;3.00;2.00;;;;;8.56;100.00;100594.69;6259915;22;47233;-84
2022/12/30 00:09:16;;;;;;;;;7.00;3.00;;;;;8.51;100.00;100579.56;6283662;22;45706;-84
2022/12/30 00:11:42;;;;;;;;;4.00;3.00;;;;;8.44;100.00;100575.84;6285154;22;45303;-84
2022/12/30 00:34:45;;;;;;;;;4.00;2.33;;;;;8.41;100.00;100565.22;6163815;23;45345;-83
2022/12/30 00:37:11;;;;;;;;;8.00;6.00;;;;;8.34;100.00;100564.19;6159359;23;45474;-83
2022/12/30 00:39:37;;;;;;;;;8.00;6.00;;;;;8.30;100.00;100550.81;6162642;23;45400;-83
2022/12/30 00:44:46;;;;;;;;;7.00;4.00;;;;;8.27;100.00;100561.38;6165280;23;45359;-83
2022/12/30 00:47:13;;;;;;;;;6.00;6.00;;;;;8.25;100.00;100565.75;6163686;23;45399;-82
2022/12/30 00:57:51;;;;;;;;;6.00;3.33;;;;;8.14;100.00;100560.19;6280373;22;45338;-83
2022/12/30 01:00:16;;;;;;;;;5.33;3.00;;;;;8.10;100.00;100546.03;6259540;22;47415;-83
2022/12/30 01:02:42;;;;;;;;;3.67;2.67;;;;;8.17;100.00;100569.09;6287335;22;45274;-83
2022/12/30 01:05:08;;;;;;;;;2.00;2.00;;;;;8.16;100.00;100566.41;6286779;22;45372;-83
2022/12/30 01:07:33;;;;;;;;;3.00;2.00;;;;;8.15;100.00;100557.59;6288280;22;45326;-83
2022/12/30 01:09:59;;;;;;;;;4.67;4.67;;;;;8.13;100.00;100553.13;6286083;22;47217;-83
2022/12/30 01:12:26;;;;;;;;;6.67;4.00;;;;;8.11;100.00;100549.56;6278430;22;45903;-83
2022/12/30 01:14:54;;;;;;;;;3.67;2.00;;;;;8.14;100.00;100550.53;6257132;22;45587;-83
2022/12/30 01:17:29;;;;;;;;;2.33;1.67;;;;;8.15;100.00;100541.69;6257134;22;45379;-83
2022/12/30 01:19:55;;;;;;;;;3.00;3.00;;;;;8.12;100.00;100546.94;6254825;22;45358;-83
2022/12/30 01:22:20;;;;;;;;;1.67;1.67;;;;;8.11;100.00;100549.56;6251283;22;45842;-83
2022/12/30 01:24:46;;;;;;;;;3.67;1.00;;;;;8.13;100.00;100548.72;6250361;22;45378;-83
2022/12/30 01:27:13;;;;;;;;;7.00;5.33;;;;;8.07;100.00;100521.22;6254308;22;45689;-83
2022/12/30 01:29:41;;;;;;;;;2.33;2.33;;;;;8.11;100.00;100534.53;6253278;22;45168;-84
2022/12/30 01:32:25;;;;;;;;;3.00;3.00;;;;;8.13;100.00;100527.53;6252604;22;45324;-84
2022/12/30 01:34:56;;;;;;;;;2.00;2.00;;;;;8.12;100.00;100523.09;6255305;22;45380;-84
2022/12/30 01:37:22;;;;;;;;;6.00;2.00;;;;;8.15;100.00;100532.88;6281771;22;44783;-85
2022/12/30 01:39:48;;;;;;;;;3.67;3.00;;;;;8.06;100.00;100520.34;6250023;22;46899;-84
2022/12/30 01:42:22;;;;;;;;;2.33;2.33;;;;;8.11;100.00;100531.91;6251352;22;45413;-83
2022/12/30 01:45:13;;;;;;;;;3.00;3.00;;;;;8.12;100.00;100533.69;6254769;22;45386;-83
2022/12/30 01:47:56;;;;;;;;;5.33;2.67;;;;;8.13;100.00;100532.81;6252325;22;45504;-84
2022/12/30 01:50:47;;;;;;;;;3.33;3.33;;;;;8.13;100.00;100532.81;6258832;22;46265;-84
2022/12/30 01:53:24;;;;;;;;;2.00;2.00;;;;;8.09;100.00;100520.38;6254376;22;45408;-83
2022/12/30 01:55:55;;;;;;;;;2.67;2.67;;;;;8.06;100.00;100525.63;6251526;22;45350;-83
2022/12/30 01:58:30;;;;;;;;;4.67;4.67;;;;;8.02;100.00;100523.78;6252817;22;45501;-83
2022/12/30 02:00:56;;;;;;;;;3.00;3.00;;;;;7.98;100.00;100524.56;6253258;22;45444;-84
2022/12/30 02:03:31;;;;;;;;;2.00;2.00;;;;;7.91;100.00;100510.28;6277759;22;45798;-83
2022/12/30 02:05:57;;;;;;;;;6.00;4.00;;;;;7.95;100.00;100522.72;6253606;22;45212;-83
2022/12/30 02:08:24;;;;;;;;;6.67;4.67;;;;;7.93;100.00;100512.97;6251123;22;45334;-83
2022/12/30 02:10:54;;;;;;;;;4.00;4.00;;;;;7.95;100.00;100516.56;6253503;22;48157;-83
2022/12/30 02:13:23;;;;;;;;;3.33;3.00;;;;;7.94;100.00;100525.38;6257009;22;45520;-83
2022/12/30 02:16:01;;;;;;;;;6.67;4.00;;;;;7.90;100.00;100520.88;6258431;22;45363;-84
2022/12/30 02:18:48;;;;;;;;;3.00;1.67;;;;;7.84;100.00;100507.47;6285060;22;45348;-83
2022/12/30 02:21:42;;;;;;;;;4.33;4.33;;;;;7.96;100.00;100528.94;6255728;22;46900;-83
2022/12/30 02:24:32;;;;;;;;;5.67;5.33;;;;;7.94;100.00;100520.09;6256357;22;45675;-83
2022/12/30 02:27:22;;;;;;;;;6.33;3.33;;;;;7.93;100.00;100524.47;6284423;22;45700;-84
2022/12/30 02:30:09;;;;;;;;;2.00;2.00;;;;;7.90;100.00;100521.75;6284560;22;45414;-82
2022/12/30 02:33:02;;;;;;;;;6.33;6.00;;;;;7.91;100.00;100520.00;6255370;22;48037;-82
2022/12/30 02:35:33;;;;;;;;;4.33;4.33;;;;;7.84;100.00;100496.88;6282936;22;45412;-83
2022/12/30 02:38:04;;;;;;;;;6.67;6.67;;;;;7.86;100.00;100500.47;6283822;22;45385;-83
2022/12/30 02:46:53;;;;;;;;;5.00;5.00;;;;;7.89;100.00;100496.13;6288208;22;44783;-83
2022/12/30 02:49:23;;;;;;;;;7.33;6.00;;;;;7.83;100.00;100485.41;6285846;22;45437;-84
2022/12/30 02:54:35;;;;;;;;;7.00;7.00;;;;;7.92;100.00;100490.91;6283898;22;45374;-83
2022/12/30 02:57:00;;;;;;;;;6.33;6.00;;;;;7.95;100.00;100498.03;6281933;22;45296;-83
2022/12/30 03:05:48;;;;;;;;;10.33;8.00;;;;;7.99;100.00;100468.09;6282763;22;45528;-83
2022/12/30 03:08:34;;;;;;;;;6.00;6.00;;;;;8.05;100.00;100468.22;6255739;22;45473;-84
2022/12/30 03:11:13;;;;;;;;;5.33;4.00;;;;;8.06;100.00;100470.00;6259067;22;44717;-83
2022/12/30 03:14:19;;;;;;;;;7.00;7.00;;;;;8.11;100.00;100478.91;6285796;22;45329;-83
2022/12/30 03:16:53;;;;;;;;;7.33;7.33;;;;;8.11;100.00;100456.84;6257371;22;46769;-84
2022/12/30 03:19:23;;;;;;;;;7.00;7.00;;;;;8.16;100.00;100463.09;6285317;22;45302;-83
2022/12/30 03:21:51;;;;;;;;;6.00;6.00;;;;;8.15;100.00;100454.28;6257633;22;45428;-84
2022/12/30 03:27:09;;;;;;;;;3.00;3.00;;;;;8.26;100.00;100448.28;6286881;22;45874;-83
2022/12/30 03:29:59;;;;;;;;;8.00;6.00;;;;;8.25;100.00;100449.16;6287500;22;45342;-83
2022/12/30 03:32:26;;;;;;;;;3.67;3.67;;;;;8.24;100.00;100450.94;6259790;22;45291;-84
2022/12/30 03:34:51;;;;;;;;;4.00;4.00;;;;;8.27;100.00;100450.09;6286743;22;45381;-84
2022/12/30 03:37:29;;;;;;;;;7.67;7.00;;;;;8.36;100.00;100456.47;6256285;22;47180;-83
2022/12/30 03:40:02;;;;;;;;;6.33;6.33;;;;;8.38;100.00;100448.50;6256009;22;45697;-83
2022/12/30 03:42:29;;;;;;;;;7.00;6.00;;;;;8.42;100.00;100442.44;6285335;22;45386;-84
2022/12/30 03:44:56;;;;;;;;;5.33;5.33;;;;;8.46;100.00;100444.28;6285632;22;45319;-83
2022/12/30 03:47:25;;;;;;;;;8.67;8.67;;;;;8.43;100.00;100433.63;6255496;22;46713;-83
2022/12/30 03:49:50;;;;;;;;;8.00;6.67;;;;;8.39;100.00;100423.81;6256804;22;45453;-83
2022/12/30 03:52:18;;;;;;;;;5.00;5.00;;;;;8.46;100.00;100425.72;6256745;22;44701;-82
2022/12/30 03:54:44;;;;;;;;;10.00;8.00;;;;;8.48;100.00;100424.00;6255778;22;45449;-83
2022/12/30 03:57:10;;;;;;;;;8.00;8.00;;;;;8.43;100.00;100414.19;6282695;22;46631;-82
2022/12/30 03:59:35;;;;;;;;;7.00;6.00;;;;;8.44;100.00;100421.28;6283407;22;45341;-83
2022/12/30 04:02:01;;;;;;;;;10.00;6.33;;;;;8.42;100.00;100408.00;6281132;22;44789;-83
2022/12/30 04:04:27;;;;;;;;;5.33;5.33;;;;;8.38;100.00;100406.13;6284651;22;45397;-83
2022/12/30 04:06:52;;;;;;;;;6.67;4.67;;;;;8.38;100.00;100396.44;6282558;22;48696;-83
2022/12/30 04:09:19;;;;;;;;;8.33;6.00;;;;;8.41;100.00;100400.91;6256162;22;45359;-84
2022/12/30 04:11:44;;;;;;;;;5.33;5.33;;;;;8.40;100.00;100396.44;6284159;22;45379;-84
2022/12/30 04:14:10;;;;;;;;;7.00;6.00;;;;;8.44;100.00;100393.00;6257104;22;45517;-84
2022/12/30 04:16:36;;;;;;;;;4.00;3.00;;;;;8.33;100.00;100363.66;6281877;22;46544;-84
2022/12/30 04:19:02;;;;;;;;;3.33;3.33;;;;;8.49;100.00;100378.09;6257345;22;45431;-84
2022/12/30 04:21:30;;;;;;;;;6.00;4.00;;;;;8.52;100.00;100375.47;6284574;22;45370;-83
2022/12/30 04:23:55;;;;;;;;;5.33;5.33;;;;;8.57;100.00;100373.81;6284436;22;45528;-83
2022/12/30 04:26:20;;;;;;;;;8.00;4.00;;;;;8.56;100.00;100369.38;6256926;22;47618;-83
2022/12/30 04:28:46;;;;;;;;;3.67;3.67;;;;;8.57;100.00;100376.47;6283629;22;45274;-85
2022/12/30 04:31:12;;;;;;;;;8.00;6.00;;;;;8.54;100.00;100375.50;6257223;22;45378;-84
2022/12/30 04:33:37;;;;;;;;;10.67;7.33;;;;;8.58;100.00;100383.56;6260117;22;45350;-83
2022/12/30 04:36:03;;;;;;;;;6.33;6.33;;;;;8.58;100.00;100386.22;6284472;22;47527;-83
2022/12/30 04:38:29;;;;;;;;;8.00;7.00;;;;;8.56;100.00;100374.69;6259814;22;45307;-83
2022/12/30 04:40:55;;;;;;;;;7.33;7.00;;;;;8.56;100.00;100376.41;6258917;22;45315;-83
2022/12/30 04:43:20;;;;;;;;;5.33;5.33;;;;;8.46;100.00;100354.16;6258728;22;45464;-83
2022/12/30 04:45:46;;;;;;;;;8.33;8.33;;;;;8.42;100.00;100349.69;6259512;22;46966;-84
2022/12/30 04:48:11;;;;;;;;;10.33;7.00;;;;;8.45;100.00;100360.34;6287052;22;45715;-83
2022/12/30 04:50:41;;;;;;;;;10.33;6.67;;;;;8.38;100.00;100354.03;6287930;22;45457;-83
2022/12/30 04:53:06;;;;;;;;;7.00;7.00;;;;;8.46;100.00;100355.94;6258482;22;45330;-83
2022/12/30 04:55:32;;;;;;;;;8.67;7.00;;;;;8.34;100.00;100328.34;6257201;22;47737;-83
2022/12/30 04:57:57;;;;;;;;;8.33;8.33;;;;;8.35;100.00;100327.47;6284942;22;45318;-84
2022/12/30 05:00:23;;;;;;;;;5.33;5.33;;;;;8.35;100.00;100337.19;6257303;22;45324;-83
2022/12/30 05:02:48;;;;;;;;;4.67;3.33;;;;;8.31;100.00;100330.06;6257199;22;45280;-82
2022/12/30 05:05:14;;;;;;;;;4.00;2.33;;;;;8.32;100.00;100339.78;6284492;22;45246;-82
2022/12/30 05:07:39;;;;;;;;;6.00;6.00;;;;;8.29;100.00;100331.78;6256276;22;45362;-84
2022/12/30 05:10:05;;;;;;;;;3.33;3.33;;;;;8.33;100.00;100323.03;6258971;22;45334;-84
2022/12/30 05:12:32;;;;;;;;;7.33;7.33;;;;;8.32;100.00;100305.31;6286119;22;45397;-83
2022/12/30 05:14:58;;;;;;;;;7.67;7.00;;;;;8.37;100.00;100298.38;6287028;22;45480;-84
2022/12/30 05:17:23;;;;;;;;;5.00;5.00;;;;;8.29;100.00;100274.38;6261529;22;45329;-84
2022/12/30 05:19:49;;;;;;;;;3.00;3.00;;;;;8.35;100.00;100285.09;6260974;22;45456;-83
2022/12/30 05:22:14;;;;;;;;;4.00;3.67;;;;;8.35;100.00;100270.94;6288358;22;45832;-84
2022/12/30 05:27:24;;;;;;;;;6.00;6.00;;;;;8.40;100.00;100274.53;6284222;22;45365;-84
2022/12/30 05:29:49;;;;;;;;;6.00;4.33;;;;;8.40;100.00;100270.16;6257318;22;45373;-84
2022/12/30 05:35:36;;;;;;;;;5.33;3.00;;;;;8.44;100.00;100267.56;6286797;22;45389;-83
2022/12/30 05:38:02;;;;;;;;;7.00;7.00;;;;;8.43;100.00;100256.09;6286496;22;44843;-83
2022/12/30 05:40:28;;;;;;;;;6.00;6.00;;;;;8.48;100.00;100259.69;6285710;22;45389;-85
2022/12/30 05:42:53;;;;;;;;;6.67;6.67;;;;;8.49;100.00;100248.22;6260808;22;45517;-83
2022/12/30 05:45:18;;;;;;;;;6.00;3.67;;;;;8.52;100.00;100245.59;6289200;22;45138;-83
2022/12/30 05:47:44;;;;;;;;;3.00;2.67;;;;;8.52;100.00;100235.00;6260568;22;45541;-83
2022/12/30 05:50:09;;;;;;;;;6.33;5.00;;;;;8.58;100.00;100231.56;6287863;22;45820;-85
2022/12/30 05:52:35;;;;;;;;;2.67;2.33;;;;;8.60;100.00;100228.09;6260200;22;44808;-83
2022/12/30 05:55:00;;;;;;;;;3.67;3.67;;;;;8.59;100.00;100222.75;6259270;22;47251;-83
2022/12/30 05:57:26;;;;;;;;;0.00;0.00;;;;;8.61;100.00;100213.94;6260653;22;45569;-83
2022/12/30 05:59:51;;;;;;;;;2.67;2.00;;;;;8.63;100.00;100206.03;6290006;22;45368;-83
2022/12/30 06:02:17;;;;;;;;;6.67;3.33;;;;;8.69;100.00;100202.56;6287739;22;45341;-83
2022/12/30 06:04:42;;;;;;;;;6.67;2.67;;;;;8.62;100.00;100180.38;6289766;22;45246;-83
2022/12/30 06:07:08;;;;;;;;;3.33;2.00;;;;;8.71;100.00;100179.63;6259774;22;45303;-83
2022/12/30 06:09:33;;;;;;;;;3.33;1.67;;;;;8.76;100.00;100180.53;6287656;22;45283;-82
2022/12/30 06:11:59;;;;;;;;;3.00;3.00;;;;;8.87;100.00;100186.88;6254473;22;45224;-83
2022/12/30 06:14:24;;;;;;;;;2.00;2.00;;;;;8.81;100.00;100168.25;6256521;22;45633;-82
2022/12/30 06:16:50;;;;;;;;;3.00;3.00;;;;;8.84;100.00;100165.63;6227819;22;45742;-84
2022/12/30 06:19:15;;;;;;;;;4.00;2.67;;;;;8.92;100.00;100171.03;6256883;22;45680;-83
2022/12/30 06:21:41;;;;;;;;;6.00;3.00;;;;;8.89;100.00;100158.63;6229455;22;45366;-84
2022/12/30 06:24:06;;;;;;;;;3.00;2.33;;;;;8.97;100.00;100167.56;6258645;22;45392;-83
2022/12/30 06:26:32;;;;;;;;;3.67;2.00;;;;;8.97;100.00;100148.09;6257162;22;44806;-82
2022/12/30 06:28:58;;;;;;;;;4.67;4.00;;;;;8.96;100.00;100146.31;6255392;22;45526;-83
2022/12/30 06:31:24;;;;;;;;;3.33;2.00;;;;;9.01;100.00;100134.00;6256559;22;44847;-83
2022/12/30 06:33:50;;;;;;;;;2.00;2.00;;;;;9.06;100.00;100121.66;6256918;22;45459;-83
2022/12/30 06:36:15;;;;;;;;;3.67;3.67;;;;;9.09;100.00;100113.75;6257127;22;45263;-84
2022/12/30 06:38:41;;;;;;;;;4.67;3.00;;;;;9.13;100.00;100110.25;6257717;22;45101;-84
2022/12/30 06:41:07;;;;;;;;;3.67;3.67;;;;;9.14;100.00;100087.25;6230602;22;45232;-83
2022/12/30 06:43:34;;;;;;;;;2.67;2.67;;;;;9.24;100.00;100098.84;6257733;22;46196;-83
2022/12/30 06:45:59;;;;;;;;;6.33;4.67;;;;;9.23;100.00;100081.13;6257774;22;45178;-82
2022/12/30 06:48:25;;;;;;;;;2.00;2.00;;;;;9.25;100.00;100084.69;6258420;22;45421;-83
2022/12/30 06:50:58;;;;;;;;;3.33;2.33;;;;;9.38;100.00;100095.44;6258668;22;45359;-85
2022/12/30 06:53:25;;;;;;;;;6.67;3.33;;;;;9.38;100.00;100086.59;6230852;22;47348;-83
2022/12/30 06:55:50;;;;;;;;;2.00;1.00;;;;;9.46;100.00;100084.00;6258324;22;45533;-82
2022/12/30 06:58:16;;;;;;;;;4.00;3.00;;;;;9.52;100.00;100082.28;6229017;22;44798;-82
2022/12/30 07:00:48;;;;;;;;;2.00;2.00;;;;;9.57;100.00;100063.72;6257966;22;45357;-83
2022/12/30 07:03:13;;;;;;;;;3.00;3.00;;;;;9.50;100.00;100054.84;6258298;22;45220;-84
2022/12/30 07:05:39;;;;;;;;;7.00;6.00;;;;;9.57;100.00;100053.09;6257167;22;45334;-83
2022/12/30 07:08:05;;;;;;;;;6.67;5.00;;;;;9.54;100.00;100040.69;6256865;22;45235;-84
2022/12/30 07:10:32;;;;;;;;;2.00;2.00;;;;;9.58;100.00;100025.69;6256088;22;45620;-84
2022/12/30 07:12:57;;;;;;;;;8.33;6.33;;;;;9.64;100.00;100027.50;6278012;22;45386;-84
2022/12/30 07:15:23;;;;;;;;;2.33;2.33;;;;;9.63;100.00;100012.44;6282793;22;45851;-83
2022/12/30 07:17:48;;;;;;;;;4.67;3.00;;;;;9.65;100.00;100022.19;6259880;22;45406;-84
2022/12/30 07:20:15;;;;;;;;;2.67;2.67;;;;;9.70;100.00;100007.19;6288605;22;45419;-84
2022/12/30 07:22:41;;;;;;;;;4.33;3.00;;;;;9.75;100.00;100013.38;6287500;22;46085;-83
2022/12/30 07:28:28;;;;;;;;;2.00;2.00;;;;;9.82;100.00;100007.25;6285849;22;45440;-83
2022/12/30 07:30:54;;;;;;;;;5.33;3.00;;;;;9.86;100.00;99999.31;6283897;22;45378;-84
2022/12/30 07:33:27;;;;;;;;;1.67;1.67;;;;;9.84;100.00;100001.94;6283839;22;45343;-83
2022/12/30 07:35:52;;;;;;;;;2.00;2.00;;;;;9.82;100.00;99978.03;6258002;22;45493;-84
2022/12/30 07:38:21;;;;;;;;;4.33;3.00;;;;;9.98;100.00;99988.75;6259746;22;45327;-85
2022/12/30 07:40:46;;;;;;;;;3.00;1.67;;;;;9.94;100.00;99976.31;6259352;22;45211;-84
2022/12/30 07:43:13;;;;;;;;;3.00;2.00;;;;;9.92;100.00;99957.72;6258753;22;47048;-83
2022/12/30 07:45:38;;;;;;;;;5.67;4.33;;;;;10.00;100.00;99971.03;6282614;22;45590;-84
2022/12/30 07:48:04;;;;;;;;;4.00;2.00;;;;;10.04;100.00;99979.88;6258173;22;45265;-84
2022/12/30 07:50:29;;;;;;;;;2.00;1.33;;;;;10.00;100.00;99979.00;6285787;22;45132;-82
2022/12/30 07:52:55;;;;;;;;;5.33;3.00;;;;;10.09;100.00;99988.78;6256785;22;46654;-83
2022/12/30 07:55:21;;;;;;;;;2.33;2.00;;;;;10.09;100.00;99981.69;6285512;22;45494;-83
2022/12/30 07:57:46;;;;;;;;;4.00;2.67;;;;;10.15;100.00;99989.66;6258160;22;45463;-83
2022/12/30 08:00:12;;;;;;;;;3.67;2.67;;;;;10.17;100.00;99981.72;6286843;22;45314;-83
2022/12/30 08:02:39;;;;;;;;;2.00;2.00;;;;;10.15;100.00;99980.81;6285920;22;45363;-84
2022/12/30 08:05:07;;;;;;;;;2.67;2.67;;;;;10.15;100.00;99975.50;6288063;22;45366;-83
2022/12/30 08:07:34;;;;;;;;;2.33;2.33;;;;;10.22;100.00;99974.66;6259682;22;45394;-84
2022/12/30 08:10:00;;;;;;;;;2.00;2.00;;;;;10.17;100.00;99964.00;6265116;22;44972;-83
2022/12/30 08:12:25;;;;;;;;;3.00;3.00;;;;;10.18;100.00;99944.53;6258513;22;46962;-83
2022/12/30 08:14:51;;;;;;;;;1.33;1.33;;;;;10.24;100.00;99948.97;6258655;22;45463;-84
2022/12/30 08:17:16;;;;;;;;;3.00;2.00;;;;;10.23;100.00;99931.25;6260373;22;45836;-85
2022/12/30 08:19:42;;;;;;;;;3.00;3.00;;;;;10.27;100.00;99948.09;6282531;22;45325;-83
2022/12/30 08:22:08;;;;;;;;;2.00;2.00;;;;;10.17;100.00;99932.09;6254560;22;48072;-83
2022/12/30 08:24:33;;;;;;;;;3.00;1.00;;;;;10.18;100.00;99936.56;6255186;22;45362;-83
2022/12/30 08:26:59;;;;;;;;;2.00;2.00;;;;;10.25;100.00;99933.91;6278459;22;45478;-84
2022/12/30 08:29:24;;;;;;;;;2.00;1.33;;;;;10.23;100.00;99927.72;6254316;22;45330;-83
2022/12/30 08:31:50;;;;;;;;;4.00;3.00;;;;;10.23;100.00;99920.63;6253187;22;45432;-85
2022/12/30 08:34:19;;;;;;;;;2.33;1.00;;;;;10.20;100.00;99905.56;6277720;22;45433;-84
2022/12/30 08:36:46;;;;;;;;;1.00;1.00;;;;;10.13;100.00;99909.06;6254834;22;45319;-84
2022/12/30 08:39:13;;;;;;;;;1.33;1.33;;;;;10.07;100.00;99898.44;6255935;22;45411;-85
2022/12/30 08:41:41;;;;;;;;;3.00;3.00;;;;;10.09;100.00;99899.31;6256620;22;45444;-84
2022/12/30 08:44:08;;;;;;;;;2.00;2.00;;;;;10.10;100.00;99901.09;6281033;22;45267;-83
2022/12/30 08:46:37;;;;;;;;;3.00;2.00;;;;;10.10;100.00;99900.19;6256329;22;45393;-83
2022/12/30 08:49:07;;;;;;;;;2.67;2.00;;;;;10.02;100.00;99886.91;6257738;22;45710;-83
2022/12/30 08:51:33;;;;;;;;;2.00;0.33;;;;;9.92;100.00;99877.16;6256515;22;45213;-85
2022/12/30 08:53:59;;;;;;;;;1.00;1.00;;;;;9.89;100.00;99875.34;6257773;22;45329;-85
2022/12/30 08:56:29;;;;;;;;;2.67;2.00;;;;;9.88;100.00;99864.75;6278670;22;45378;-85
2022/12/30 08:58:58;;;;;;;;;3.00;1.00;;;;;9.79;100.00;99842.56;6247671;22;45375;-84
2022/12/30 09:01:29;;;;;;;;;1.00;1.00;;;;;9.88;100.00;99865.63;6252882;22;45375;-84
2022/12/30 09:03:56;;;;;;;;;3.33;3.00;;;;;9.92;100.00;99858.56;6253918;22;45946;-84
2022/12/30 09:06:24;;;;;;;;;1.00;1.00;;;;;9.88;100.00;99860.31;6253787;22;45414;-85
2022/12/30 09:08:50;;;;;;;;;1.33;1.33;;;;;9.77;100.00;99830.19;6251494;22;44983;-84
2022/12/30 09:11:23;;;;;;;;;2.33;2.00;;;;;9.78;100.00;99824.88;6274971;22;46858;-84
2022/12/30 09:13:49;;;;;;;;;2.33;2.00;;;;;9.75;100.00;99811.59;6250760;22;45431;-84
2022/12/30 09:16:18;;;;;;;;;1.00;1.00;;;;;9.69;100.00;99803.59;6253175;22;45414;-82
2022/12/30 09:18:44;;;;;;;;;1.33;1.33;;;;;9.71;100.00;99803.63;6255012;22;45613;-83
2022/12/30 09:21:09;;;;;;;;;0.00;0.00;;;;;9.68;100.00;99798.31;6258831;22;46284;-83
2022/12/30 09:23:35;;;;;;;;;3.00;2.00;;;;;9.70;100.00;99799.19;6258154;22;45432;-83
2022/12/30 09:26:02;;;;;;;;;1.67;1.67;;;;;9.69;100.00;99792.97;6254792;22;45372;-83
2022/12/30 09:28:27;;;;;;;;;4.00;3.00;;;;;9.69;100.00;99800.06;6255881;22;45311;-84
2022/12/30 09:30:53;;;;;;;;;1.00;1.00;;;;;9.66;100.00;99782.38;6255100;22;45357;-83
2022/12/30 09:33:19;;;;;;;;;1.00;1.00;;;;;9.66;100.00;99793.00;6254989;22;45366;-84
2022/12/30 09:35:45;;;;;;;;;1.67;1.67;;;;;9.76;100.00;99791.25;6256610;22;45175;-84
2022/12/30 09:38:36;;;;;;;;;3.67;2.33;;;;;9.79;100.00;99783.28;4759133;27;10365867;-84
2022/12/30 09:41:01;;;;;;;;;1.00;1.00;;;;;9.91;100.00;99780.63;5089955;27;47391;-84
2022/12/30 09:43:37;;;;;;;;;3.33;2.00;;;;;10.05;100.00;99763.84;5089962;27;44791;-85
2022/12/30 09:46:05;;;;;;;;;1.00;1.00;;;;;10.08;100.00;99764.72;5108150;27;45458;-85
2022/12/30 09:48:43;;;;;;;;;1.00;1.00;;;;;10.10;100.00;99770.03;5099526;27;45353;-86
2022/12/30 09:51:17;;;;;;;;;2.00;2.00;;;;;10.16;100.00;99760.31;5104024;27;46769;-84
2022/12/30 09:53:55;;;;;;;;;1.00;1.00;;;;;10.15;100.00;99757.63;5108545;27;45353;-84
2022/12/30 09:56:30;;;;;;;;;2.33;2.00;;;;;10.11;100.00;99734.63;5108057;27;45142;-84
2022/12/30 09:59:01;;;;;;;;;1.00;1.00;;;;;10.12;100.00;99718.69;5089169;27;44900;-85
2022/12/30 10:01:33;;;;;;;;;2.67;1.00;;;;;10.10;100.00;99712.47;5099427;27;45366;-85
2022/12/30 10:04:00;;;;;;;;;1.00;1.00;;;;;10.00;100.00;99716.03;5071651;28;45431;-86
2022/12/30 10:06:39;;;;;;;;;3.00;2.33;;;;;10.03;100.00;99705.38;5093203;27;45471;-86
2022/12/30 10:09:44;;;;;;;;;2.67;1.33;;;;;10.03;100.00;99694.75;5090616;27;44865;-85
2022/12/30 10:12:31;;;;;;;;;1.00;1.00;;;;;10.00;100.00;99690.34;5106493;27;45369;-85
2022/12/30 10:15:17;;;;;;;;;2.00;2.00;;;;;10.00;100.00;99679.72;5089637;27;45418;-84
2022/12/30 10:17:54;;;;;;;;;0.50;0.50;;;;;10.07;100.00;99677.94;5105858;27;45463;-85
2022/12/30 10:20:56;;;;;;;;;1.00;1.00;;;;;10.11;100.00;99670.84;5108623;27;45424;-85
2022/12/30 10:24:03;;;;;;;;;4.00;4.00;;;;;10.15;100.00;99651.38;5107021;27;45519;-84
2022/12/30 10:26:45;;;;;;;;;1.67;1.00;;;;;10.21;100.00;99638.94;5085868;27;45409;-85
2022/12/30 10:29:17;;;;;;;;;0.00;0.00;;;;;10.24;100.00;99647.78;5101201;27;45763;-86
2022/12/30 10:31:46;;;;;;;;;1.00;1.00;;;;;10.27;100.00;99637.16;5088496;28;45278;-86
2022/12/30 10:34:18;;;;;;;;;0.00;0.00;;;;;10.41;100.00;99619.44;5067558;28;48166;-86
2022/12/30 10:37:02;;;;;;;;;0.25;0.25;;;;;10.47;100.00;99603.47;5064111;28;45528;-85
2022/12/30 10:39:43;;;;;;;;;0.67;0.67;;;;;10.64;100.00;99615.81;5068343;28;44800;-84
2022/12/30 10:42:38;;;;;;;;;0.00;0.00;;;;;10.75;100.00;99612.22;5066768;28;45347;-84
2022/12/30 10:45:18;;;;;;;;;0.00;0.00;;;;;10.87;100.00;99627.22;5064948;28;47366;-85
2022/12/30 10:47:59;;;;;;;;;0.00;0.00;;;;;10.96;100.00;99613.88;5062663;28;45350;-85
2022/12/30 10:50:39;;;;;;;;;0.00;0.00;;;;;10.99;100.00;99592.56;5054746;28;45176;-84
2022/12/30 10:53:12;;;;;;;;;0.00;0.00;;;;;11.10;100.00;99573.00;5053936;28;45226;-84
2022/12/30 10:56:15;;;;;;;;;0.00;0.00;;;;;11.24;100.00;99584.44;5049767;28;46579;-83
2022/12/30 10:59:44;;;;;;;;;;;;;;;;;;;;;
2022/12/30 11:09:37;;;;;;;;;1.00;0.00;;;;;11.60;100.00;99555.75;4912755;29;45314;-84
2022/12/30 11:15:24;;;;;;;;;0.75;0.75;;;;;11.87;100.00;99556.38;4911718;29;45711;-84
2022/12/30 11:17:53;;;;;;;;;0.00;0.00;;;;;11.93;100.00;99559.00;4895873;29;46083;-84
2022/12/30 11:20:18;;;;;;;;;1.00;1.00;;;;;11.99;100.00;99561.59;4910759;29;46439;-85
2022/12/30 11:22:50;;;;;;;;;0.25;0.25;;;;;11.93;100.00;99543.88;4912199;29;45310;-85
2022/12/30 11:25:33;;;;;;;;;0.00;0.00;;;;;11.98;100.00;99544.72;4901176;29;44773;-85
2022/12/30 11:28:18;;;;;;;;;0.25;0.25;;;;;12.01;100.00;99542.03;4916989;28;44900;-85
2022/12/30 11:31:07;;;;;;;;;0.00;0.00;;;;;11.96;100.00;99538.53;4916889;29;45124;-84
2022/12/30 11:33:37;;;;;;;;;2.00;0.00;;;;;11.92;100.00;99530.59;4911815;28;45553;-84
2022/12/30 11:36:30;;;;;;;;;0.00;0.00;;;;;11.90;100.00;99541.28;4931429;28;44869;-84
2022/12/30 11:39:15;;;;;;;;;1.00;0.00;;;;;11.94;100.00;99539.47;4956312;28;45472;-84
2022/12/30 11:41:53;;;;;;;;;0.00;0.00;;;;;11.87;100.00;99521.72;5042961;28;47137;-85
2022/12/30 11:44:23;;;;;;;;;2.00;2.00;;;;;11.77;100.00;99521.81;5053177;28;45544;-84
2022/12/30 11:46:54;;;;;;;;;1.00;1.00;;;;;11.92;100.00;99519.94;5056767;28;45385;-84
2022/12/30 11:49:32;;;;;;;;;0.00;0.00;;;;;12.00;100.00;99548.25;5057245;28;45644;-84
2022/12/30 11:52:11;;;;;;;;;0.00;0.00;;;;;11.91;100.00;99523.50;5057011;28;45320;-85
2022/12/30 11:54:45;;;;;;;;;1.00;1.00;;;;;12.09;100.00;99488.63;5055142;28;45447;-85
2022/12/30 11:57:26;;;;;;;;;0.00;0.00;;;;;12.17;100.00;99526.75;5051331;28;45472;-84
2022/12/30 11:59:59;;;;;;;;;1.00;1.00;;;;;12.11;100.00;99524.16;5048815;28;45463;-85
2022/12/30 12:02:32;;;;;;;;;0.00;0.00;;;;;12.15;100.00;99523.22;5048447;28;45461;-86
2022/12/30 12:04:59;;;;;;;;;0.00;0.00;;;;;12.28;100.00;99518.63;5048281;28;45540;-84
2022/12/30 12:07:45;;;;;;;;;0.00;0.00;;;;;12.38;100.00;99520.28;5030517;28;45486;-84
2022/12/30 12:10:24;;;;;;;;;0.75;0.50;;;;;12.48;100.00;99518.38;5045551;28;45296;-83
2022/12/30 12:13:01;;;;;;;;;1.00;1.00;;;;;12.57;100.00;99520.91;5044245;28;45373;-83
2022/12/30 12:15:45;;;;;;;;;1.33;1.33;;;;;12.63;100.00;99513.72;5046947;28;45319;-84
2022/12/30 12:18:20;;;;;;;;;0.00;0.00;;;;;12.73;100.00;99516.25;5051194;28;44915;-85
2022/12/30 12:21:23;;;;;;;;;0.00;0.00;;;;;12.79;100.00;99509.94;5049485;28;45336;-86
2022/12/30 12:24:16;;;;;;;;;0.00;0.00;;;;;12.79;100.00;99499.25;5045002;28;45382;-84
2022/12/30 12:26:48;;;;;;;;;0.00;0.00;;;;;12.86;100.00;99506.25;5030637;28;45345;-84
2022/12/30 12:29:14;;;;;;;;;1.00;0.00;;;;;12.90;100.00;99485.75;5045003;28;45429;-85
2022/12/30 12:32:24;;;;;;;;;0.00;0.00;;;;;12.98;100.00;99505.19;5048866;28;45367;-85
2022/12/30 12:35:28;;;;;;;;;0.00;0.00;;;;;13.01;100.00;99484.69;5047997;28;45359;-86
2022/12/30 12:38:28;;;;;;;;;2.00;1.00;;;;;12.98;100.00;99492.72;5023608;28;45374;-85
2022/12/30 12:41:13;;;;;;;;;0.00;0.00;;;;;12.91;100.00;99515.09;5047520;28;45454;-86
2022/12/30 12:44:16;;;;;;;;;0.00;0.00;;;;;12.91;100.00;99504.41;5054530;28;44857;-84
2022/12/30 12:47:25;;;;;;;;;0.00;0.00;;;;;12.89;100.00;99500.88;5054020;28;47482;-86
2022/12/30 12:49:56;;;;;;;;;0.00;0.00;;;;;12.89;100.00;99521.34;4994717;28;45371;-85
2022/12/30 12:52:42;;;;;;;;;1.00;1.00;;;;;12.95;100.00;99527.47;4994716;28;45539;-86
2022/12/30 12:55:52;;;;;;;;;0.00;0.00;;;;;13.03;100.00;99508.69;4980280;28;45484;-86
2022/12/30 12:58:25;;;;;;;;;39.67;37.00;;;;;12.99;100.00;99493.63;4976704;28;45329;-86
2022/12/30 13:01:13;;;;;;;;;0.50;0.50;;;;;13.20;100.00;99527.09;4978727;28;45333;-85